Mound Bayou, Mississippi
Current Conditions -  °F | °C
As of 8:15 AM on Friday 19 Dec 2014 (Local Time) from KRNV Reporting Station
Broken Clouds Broken Clouds  
Wind Chill: 39°   Ceiling: 2800
Heat Index: 44°   Visibility: 10mi
Dew Point: 42°   Wind: 8mph
Humidity: 93%   Direction: 20°NNE
Pressure: 30.24"   Gusts: NA
Location:  33.88°N, 90.73°W
Report Text: KRNV 191415Z AUTO 02007KT 10SM BKN028 BKN033 07/06 A3024 RMK AO2 T00650055
Loading
Personal Weather Stations






























Interactive Weather Map New forecast layout! Learn more

10-Day Weather Forecast

Advertisements
Track Severe Weather on mobile